Time;durP1;ratioP1;P1;durP2;ratioP2;P2;SDS_P1;SDS_P2;PMS_P1;PMS_P2;Temp;Humidity;BMP_temperature;BMP_pressure;BME280_temperature;BME280_humidity;BME280_pressure;Samples;Min_cycle;Max_cycle;Signal;HPM_P1;HPM_P2
2021/12/09 06:34:47;;;;;;;22.48;14.13;;;;;;;-3.89;100.00;94321.38;5555197;23;20031;-83
2021/12/09 06:37:12;;;;;;;31.10;18.83;;;;;;;-3.58;100.00;94314.28;4979483;28;20031;-82
2021/12/09 06:39:39;;;;;;;29.90;20.00;;;;;;;-2.38;100.00;94446.13;4962792;28;20058;-84
2021/12/09 06:42:05;;;;;;;31.25;19.45;;;;;;;-2.42;100.00;94386.41;4979563;28;20038;-81
2021/12/09 06:44:31;;;;;;;29.15;17.75;;;;;;;-2.60;100.00;94315.03;4978627;28;20046;-82
2021/12/09 06:46:57;;;;;;;26.38;15.73;;;;;;;-1.12;97.79;94442.88;4995462;28;20213;-82
2021/12/09 06:49:23;;;;;;;44.63;23.58;;;;;;;-2.73;100.00;94299.88;4963479;28;20018;-82
2021/12/09 06:51:49;;;;;;;46.58;23.80;;;;;;;-1.93;99.21;94321.16;4982951;28;20031;-84
2021/12/09 06:54:16;;;;;;;37.70;22.35;;;;;;;-0.90;96.72;94318.41;4966374;28;20026;-82
2021/12/09 06:56:41;;;;;;;36.60;20.77;;;;;;;-0.82;92.98;94274.63;4976685;28;20027;-82
2021/12/09 06:59:07;;;;;;;37.40;21.73;;;;;;;-0.56;93.44;94373.34;4956757;28;20070;-82
2021/12/09 07:01:34;;;;;;;44.50;23.48;;;;;;;-1.02;95.66;94313.47;4992318;28;20086;-80
2021/12/09 07:04:02;;;;;;;36.05;22.35;;;;;;;-0.59;94.57;94327.03;4955770;28;20042;-80
2021/12/09 07:06:28;;;;;;;31.75;19.33;;;;;;;-0.16;95.45;94378.66;4962069;28;20042;-79
2021/12/09 07:08:54;;;;;;;27.33;17.35;;;;;;;0.14;93.03;94433.97;4957160;28;20023;-79
2021/12/09 07:11:20;;;;;;;21.77;16.38;;;;;;;0.95;92.49;94384.91;4939627;28;20443;-80
2021/12/09 07:13:46;;;;;;;18.23;13.00;;;;;;;3.36;78.39;94400.16;4965166;28;20022;-79
2021/12/09 07:16:12;;;;;;;16.35;11.43;;;;;;;3.09;77.94;94405.25;4947914;28;20034;-81
2021/12/09 07:18:39;;;;;;;10.95;9.85;;;;;;;3.99;72.74;94410.47;4926484;28;20094;-79
2021/12/09 07:21:06;;;;;;;10.82;8.90;;;;;;;3.03;74.60;94386.16;4958497;28;20606;-79
2021/12/09 07:23:34;;;;;;;13.32;10.05;;;;;;;5.37;65.25;94415.72;4959709;28;20054;-80
2021/12/09 07:26:00;;;;;;;22.55;18.70;;;;;;;5.08;64.88;94407.53;4972604;28;20031;-80
2021/12/09 07:28:27;;;;;;;12.75;11.32;;;;;;;4.81;63.38;94412.81;4968886;28;20516;-79
2021/12/09 07:30:53;;;;;;;10.57;9.43;;;;;;;3.81;68.33;94425.81;4944204;28;20090;-79
2021/12/09 07:33:19;;;;;;;16.05;12.07;;;;;;;1.15;79.20;94399.38;4949520;28;20094;-77
2021/12/09 07:35:44;;;;;;;13.30;11.90;;;;;;;0.88;85.25;94438.13;4933857;28;20475;-76
2021/12/09 07:38:11;;;;;;;16.00;12.35;;;;;;;0.36;91.21;94425.44;4957215;28;20080;-77
2021/12/09 07:40:37;;;;;;;16.55;11.60;;;;;;;0.48;92.46;94437.97;4970918;28;20034;-78
2021/12/09 07:43:03;;;;;;;28.05;17.27;;;;;;;-0.91;95.86;94399.84;4942630;28;20090;-79
2021/12/09 07:45:29;;;;;;;34.58;22.05;;;;;;;-0.91;100.00;94433.69;4948140;28;20030;-78
2021/12/09 07:47:56;;;;;;;45.05;24.88;;;;;;;-0.63;100.00;94427.31;4950560;28;20035;-78
2021/12/09 07:50:25;;;;;;;51.72;25.27;;;;;;;-0.07;99.88;94440.75;4934673;28;20030;-78
2021/12/09 07:52:51;;;;;;;66.38;24.63;;;;;;;-0.19;100.00;94437.41;4721202;29;66807;-78
2021/12/09 07:55:19;;;;;;;60.33;24.98;;;;;;;-0.70;100.00;94419.34;4898967;29;20027;-79
2021/12/09 07:57:45;;;;;;;41.65;22.70;;;;;;;1.48;93.38;94424.56;4896297;29;20041;-78
2021/12/09 08:00:23;;;;;;;108.35;35.22;;;;;;;1.30;89.67;94423.56;4928173;29;20023;-78
2021/12/09 08:02:49;;;;;;;45.67;26.85;;;;;;;2.34;87.63;94410.34;4914265;29;20046;-79
2021/12/09 08:05:16;;;;;;;154.23;34.20;;;;;;;2.38;82.27;94409.94;4918737;29;20032;-79
2021/12/09 08:07:42;;;;;;;59.58;32.28;;;;;;;2.59;82.99;94423.38;4916363;29;20051;-78
2021/12/09 08:10:12;;;;;;;44.63;27.45;;;;;;;5.36;70.79;94419.28;4917525;29;20098;-79
2021/12/09 08:12:47;;;;;;;60.05;27.77;;;;;;;2.97;74.97;94426.81;4916729;29;20637;-78
2021/12/09 08:15:16;;;;;;;66.13;32.28;;;;;;;4.97;71.60;94408.63;4938700;29;20432;-79
2021/12/09 08:20:12;;;;;;;50.40;32.72;;;;;;;3.69;75.64;94409.06;4931624;29;20031;-77
2021/12/09 08:22:37;;;;;;;42.47;30.73;;;;;;;4.42;70.00;94387.53;4911104;29;20507;-80
2021/12/09 08:25:06;;;;;;;33.13;25.92;;;;;;;4.52;73.17;94400.25;4918722;29;20115;-77
2021/12/09 08:27:32;;;;;;;31.50;23.27;;;;;;;4.51;71.49;94401.19;4915364;29;20035;-77
2021/12/09 08:30:01;;;;;;;22.80;20.40;;;;;;;4.92;68.16;94389.47;4929729;29;20416;-77
2021/12/09 08:32:26;;;;;;;27.27;22.30;;;;;;;6.32;62.00;94387.97;4926848;29;20036;-78
2021/12/09 08:34:53;;;;;;;23.70;21.15;;;;;;;7.68;56.89;94387.97;4907951;29;20058;-78
2021/12/09 08:37:19;;;;;;;20.08;17.83;;;;;;;6.92;59.58;94386.84;4905188;29;20067;-78
2021/12/09 08:39:45;;;;;;;25.77;23.08;;;;;;;7.37;57.94;94379.38;4892123;29;20059;-78
2021/12/09 08:42:10;;;;;;;21.42;19.13;;;;;;;7.44;56.08;94377.75;4893313;29;20118;-77
2021/12/09 08:44:36;;;;;;;20.88;18.67;;;;;;;7.68;57.54;94385.38;4918555;29;20158;-77
2021/12/09 08:47:02;;;;;;;23.95;21.65;;;;;;;7.86;58.55;94378.22;4896495;29;20023;-77
2021/12/09 08:49:27;;;;;;;28.42;22.75;;;;;;;8.79;54.84;94370.41;4908328;29;20068;-77
2021/12/09 08:51:53;;;;;;;22.05;19.70;;;;;;;7.27;56.18;94368.44;4903862;29;20036;-81
2021/12/09 08:54:18;;;;;;;19.00;17.20;;;;;;;8.75;56.18;94367.34;4908444;29;20091;-79
2021/12/09 08:56:50;;;;;;;18.52;16.83;;;;;;;9.86;52.67;94368.13;4927553;29;20105;-80
2021/12/09 08:59:15;;;;;;;19.52;17.25;;;;;;;8.95;53.69;94373.66;4933305;29;20460;-78
2021/12/09 09:01:41;;;;;;;19.83;18.00;;;;;;;7.36;60.38;94367.47;4915735;29;20059;-79
2021/12/09 09:04:08;;;;;;;18.88;16.80;;;;;;;6.55;63.65;94372.72;4932077;29;20131;-78
2021/12/09 09:06:34;;;;;;;21.42;19.27;;;;;;;6.10;65.36;94377.50;4910309;29;20441;-78
2021/12/09 09:09:00;;;;;;;21.15;19.02;;;;;;;5.57;68.47;94363.19;4927847;29;20037;-79
2021/12/09 09:11:26;;;;;;;25.48;21.02;;;;;;;5.95;67.14;94363.66;4923645;29;20551;-77
2021/12/09 09:13:52;;;;;;;19.10;16.95;;;;;;;5.82;67.45;94364.88;4924440;29;20129;-76
2021/12/09 09:16:18;;;;;;;17.70;15.93;;;;;;;5.60;70.39;94350.03;4905050;29;20035;-77
2021/12/09 09:18:43;;;;;;;15.43;13.80;;;;;;;7.36;66.05;94346.84;4899067;29;20039;-77
2021/12/09 09:21:09;;;;;;;17.10;15.40;;;;;;;9.70;54.71;94331.31;4909206;29;20055;-76
2021/12/09 09:23:34;;;;;;;15.80;14.15;;;;;;;8.25;56.34;94328.38;4920175;29;20028;-76
2021/12/09 09:26:00;;;;;;;15.55;14.00;;;;;;;6.72;63.20;94329.78;4892435;29;20032;-75
2021/12/09 09:28:26;;;;;;;16.55;14.95;;;;;;;7.91;58.32;94326.16;4901068;29;20031;-76
2021/12/09 09:30:57;;;;;;;18.55;15.40;;;;;;;6.23;62.77;94314.38;4925474;29;20118;-74
2021/12/09 09:33:27;;;;;;;18.15;16.35;;;;;;;6.54;63.97;94303.44;4906199;29;20520;-76
2021/12/09 09:35:53;;;;;;;19.17;15.90;;;;;;;8.37;56.87;94298.63;4926729;29;20142;-76
2021/12/09 09:38:20;;;;;;;18.52;16.73;;;;;;;7.51;59.03;94298.03;4929259;29;20482;-75
2021/12/09 09:40:51;;;;;;;18.13;16.33;;;;;;;6.73;62.27;94309.06;4950670;28;20062;-75
2021/12/09 09:45:55;;;;;;;14.52;13.05;;;;;;;7.13;63.01;94294.47;4921737;29;20059;-76
2021/12/09 09:48:21;;;;;;;13.57;11.73;;;;;;;8.23;59.27;94270.97;4938148;28;20019;-76
2021/12/09 09:50:47;;;;;;;13.15;11.93;;;;;;;7.19;61.70;94265.50;4942448;28;20048;-76
2021/12/09 09:53:12;;;;;;;15.50;12.73;;;;;;;7.42;62.06;94280.03;4919364;29;20028;-76
2021/12/09 09:55:38;;;;;;;12.60;11.40;;;;;;;7.89;61.43;94273.97;4908648;29;20927;-75
2021/12/09 09:58:04;;;;;;;11.88;10.75;;;;;;;8.27;59.89;94278.22;4893574;29;20095;-76
2021/12/09 10:00:30;;;;;;;11.40;10.40;;;;;;;7.88;61.26;94285.25;4926447;29;20024;-76
2021/12/09 10:02:56;;;;;;;10.88;9.93;;;;;;;6.85;65.72;94289.72;4925706;29;20099;-75
2021/12/09 10:05:28;;;;;;;13.00;11.52;;;;;;;7.74;63.20;94283.38;4925561;29;20020;-76
2021/12/09 10:07:55;;;;;;;13.68;12.10;;;;;;;8.75;58.97;94273.63;4924429;29;20622;-76
2021/12/09 10:10:21;;;;;;;14.52;13.10;;;;;;;9.62;56.48;94285.72;4908221;29;20115;-75
2021/12/09 10:13:18;;;;;;;14.27;13.10;;;;;;;8.97;56.55;94270.97;4911350;29;20067;-74
2021/12/09 10:15:52;;;;;;;20.05;18.00;;;;;;;8.71;58.05;94259.44;4924996;29;20134;-74
2021/12/09 10:18:38;;;;;;;23.08;20.67;;;;;;;9.02;55.66;94267.06;4907463;29;20529;-74
2021/12/09 10:21:06;;;;;;;23.77;20.20;;;;;;;6.46;65.15;94270.81;4920826;29;20086;-75
2021/12/09 10:23:35;;;;;;;24.45;21.05;;;;;;;6.15;68.63;94262.16;4915449;29;20024;-74
2021/12/09 10:26:26;;;;;;;32.33;23.10;;;;;;;5.84;73.30;94273.03;4911868;29;20035;-74
2021/12/09 10:29:06;;;;;;;26.85;21.05;;;;;;;6.30;70.52;94253.63;4944064;29;20487;-76
2021/12/09 10:31:55;;;;;;;25.33;19.80;;;;;;;5.42;75.27;94246.66;4940185;29;20028;-74
2021/12/09 10:37:21;;;;;;;27.63;18.30;;;;;;;5.43;74.93;94232.03;4943949;29;20114;-73
2021/12/09 10:39:51;;;;;;;29.63;20.27;;;;;;;4.28;77.17;94230.91;4945149;29;20480;-73
2021/12/09 10:42:22;;;;;;;31.52;20.75;;;;;;;3.94;83.76;94223.97;4944998;29;20556;-72
2021/12/09 10:44:55;;;;;;;26.95;19.67;;;;;;;5.00;82.93;94227.91;4944169;29;20476;-72
2021/12/09 10:47:37;;;;;;;32.15;21.02;;;;;;;5.65;78.38;94228.88;4944467;29;20035;-72
2021/12/09 10:51:12;;;;;;;30.85;20.90;;;;;;;5.19;76.97;94223.31;4926453;29;20032;-71
2021/12/09 10:55:56;;;;;;;25.27;18.67;;;;;;;4.94;80.21;94205.44;4924831;29;20173;-71
2021/12/09 10:58:34;;;;;;;30.52;20.48;;;;;;;5.39;81.19;94205.09;4936032;28;20039;-71
2021/12/09 11:01:12;;;;;;;32.63;24.90;;;;;;;5.27;80.22;94210.50;4935031;29;20031;-71
2021/12/09 11:03:42;;;;;;;46.13;30.30;;;;;;;4.25;87.07;94232.00;4911059;29;20023;-71
2021/12/09 11:06:13;;;;;;;47.65;31.80;;;;;;;5.01;85.52;94232.88;4938554;29;20032;-72
2021/12/09 11:08:56;;;;;;;49.85;31.60;;;;;;;4.52;86.06;94221.63;4942664;29;20575;-71
2021/12/09 11:11:41;;;;;;;49.88;31.35;;;;;;;5.08;85.98;94227.94;4942521;29;20518;-71
2021/12/09 11:14:14;;;;;;;23.52;16.38;;;;;;;5.27;86.30;94231.03;4926898;29;20030;-71
2021/12/09 11:16:43;;;;;;;21.90;15.60;;;;;;;5.34;87.25;94231.22;4943250;29;20443;-71
2021/12/09 11:19:10;;;;;;;10.80;9.70;;;;;;;4.95;88.08;94219.88;4944450;29;20035;-71
2021/12/09 11:21:41;;;;;;;10.40;9.40;;;;;;;4.92;87.23;94215.03;4944494;29;20031;-72
2021/12/09 11:24:13;;;;;;;10.15;9.15;;;;;;;4.93;89.22;94232.84;4927150;29;20039;-73
2021/12/09 11:27:01;;;;;;;10.15;9.25;;;;;;;4.72;90.69;94240.13;4944840;29;20224;-74
2021/12/09 11:29:33;;;;;;;11.02;10.02;;;;;;;4.78;90.78;94240.31;4927691;29;20082;-79
2021/12/09 11:34:38;;;;;;;9.73;8.82;;;;;;;5.20;89.14;94213.88;4923993;29;20056;-75
2021/12/09 11:37:11;;;;;;;9.85;8.85;;;;;;;5.24;89.80;94195.41;4939485;29;20039;-75
2021/12/09 11:39:38;;;;;;;9.82;8.93;;;;;;;4.96;89.06;94183.00;4946946;29;20035;-75
2021/12/09 11:42:16;;;;;;;9.65;8.75;;;;;;;4.89;90.67;94176.88;4928729;29;20098;-75
2021/12/09 11:44:45;;;;;;;8.90;7.85;;;;;;;5.02;90.07;94179.81;4918157;28;20031;-75
2021/12/09 11:47:12;;;;;;;8.68;7.78;;;;;;;5.27;89.56;94172.00;4945768;29;20034;-76
2021/12/09 11:49:38;;;;;;;8.52;7.70;;;;;;;5.23;90.34;94180.19;4916510;29;20077;-74
2021/12/09 11:52:04;;;;;;;8.88;7.97;;;;;;;5.77;88.01;94179.59;4929969;29;20470;-75
2021/12/09 11:54:29;;;;;;;20.33;15.80;;;;;;;5.72;89.71;94193.88;4914258;29;20035;-75
2021/12/09 11:57:09;;;;;;;41.72;27.77;;;;;;;5.17;91.46;94211.63;4933911;29;20031;-74
2021/12/09 12:06:40;;;;;;;34.45;24.40;;;;;;;5.48;91.01;94217.78;4932497;29;20023;-75
2021/12/09 12:12:27;;;;;;;18.75;14.07;;;;;;;5.44;89.92;94195.13;4928391;29;20468;-76
2021/12/09 12:14:55;;;;;;;13.23;10.63;;;;;;;5.53;89.18;94189.84;4929506;29;20032;-75
2021/12/09 12:25:37;;;;;;;8.48;7.68;;;;;;;4.91;90.86;94178.34;4926115;29;20058;-76
2021/12/09 12:28:43;;;;;;;8.13;7.32;;;;;;;4.71;90.92;94182.94;4935313;29;20050;-78
2021/12/09 12:32:24;;;;;;;7.57;6.82;;;;;;;4.80;90.36;94181.19;4947007;29;20591;-79
2021/12/09 12:37:09;;;;;;;6.63;5.95;;;;;;;4.65;92.16;94193.81;4935666;29;20899;-78
2021/12/09 12:42:09;;;;;;;;;;;;;;;4.49;91.86;94160.41;4952342;29;20500;-77
2021/12/09 12:44:36;;;;;;;;;;;;;;;4.48;91.95;94161.34;4951679;29;19922;-78
2021/12/09 12:47:13;;;;;;;8.13;7.38;;;;;;;4.44;93.78;94167.72;4930345;29;19942;-79
2021/12/09 12:49:46;;;;;;;8.23;7.35;;;;;;;4.51;92.61;94155.09;4931102;29;20035;-77
2021/12/09 12:52:26;;;;;;;9.98;8.63;;;;;;;4.50;92.39;94154.31;4949127;29;20047;-79
2021/12/09 12:54:59;;;;;;;9.23;7.88;;;;;;;4.59;93.15;94138.00;4932064;29;20096;-77
2021/12/09 12:57:29;;;;;;;9.02;8.02;;;;;;;4.67;91.86;94127.78;4918841;28;20038;-77
2021/12/09 13:00:04;;;;;;;9.63;8.73;;;;;;;4.63;92.62;94129.03;4947525;29;20118;-78
2021/12/09 13:11:21;;;;;;;11.43;10.32;;;;;;;4.58;94.74;94151.78;4930703;29;20035;-76
2021/12/09 13:14:00;;;;;;;13.35;10.45;;;;;;;4.51;94.53;94144.84;4931166;29;20504;-76
2021/12/09 13:19:18;;;;;;;13.27;11.43;;;;;;;4.36;94.20;94141.28;4947151;29;20035;-77
2021/12/09 13:22:01;;;;;;;13.90;12.25;;;;;;;4.29;95.39;94150.53;4947376;29;20028;-76
2021/12/09 13:24:43;;;;;;;16.20;14.23;;;;;;;4.27;94.93;94144.75;4915642;28;20045;-75
2021/12/09 13:36:08;;;;;;;15.63;13.73;;;;;;;4.03;97.41;94143.66;4910974;29;20047;-77
2021/12/09 13:46:43;;;;;;;18.38;14.98;;;;;;;4.23;94.41;94121.19;4922460;28;20035;-78
2021/12/09 13:54:34;;;;;;;17.98;15.13;;;;;;;4.12;96.09;94129.13;4955223;28;20035;-76
2021/12/09 13:57:06;;;;;;;21.02;15.95;;;;;;;4.12;96.56;94118.88;4943878;29;20042;-76
2021/12/09 13:59:36;;;;;;;17.63;13.35;;;;;;;4.14;96.18;94115.22;4919546;29;20024;-75
2021/12/09 14:02:13;;;;;;;17.38;15.32;;;;;;;4.13;96.46;94117.94;4923695;29;20031;-76
2021/12/09 14:04:39;;;;;;;17.85;15.05;;;;;;;4.32;95.11;94120.28;4941618;29;20478;-75
2021/12/09 14:07:12;;;;;;;16.55;14.75;;;;;;;4.13;96.65;94111.06;4922963;29;20111;-75
2021/12/09 14:09:40;;;;;;;14.93;12.82;;;;;;;4.29;95.29;94112.09;4932752;28;20469;-75
2021/12/09 14:12:06;;;;;;;17.13;12.25;;;;;;;4.24;95.83;94094.59;4910177;29;20031;-75
2021/12/09 14:15:00;;;;;;;16.40;13.45;;;;;;;4.27;95.45;94096.06;4909380;29;20031;-75
2021/12/09 14:17:28;;;;;;;17.20;14.15;;;;;;;4.25;95.69;94109.03;4945615;28;20074;-75
2021/12/09 14:20:06;;;;;;;16.60;12.70;;;;;;;4.12;96.62;94099.19;4930890;28;20055;-75
2021/12/09 14:22:34;;;;;;;16.02;12.45;;;;;;;4.24;96.61;94113.34;4943052;28;20115;-75
2021/12/09 14:25:05;;;;;;;11.68;10.52;;;;;;;4.39;95.31;94111.03;4909923;29;20027;-74
2021/12/09 14:27:31;;;;;;;16.27;11.93;;;;;;;4.32;95.74;94115.16;4915263;29;20070;-76
2021/12/09 14:29:58;;;;;;;16.08;13.75;;;;;;;4.11;96.36;94107.06;4922494;29;20873;-76
2021/12/09 14:32:29;;;;;;;18.48;13.80;;;;;;;4.25;96.61;94116.72;4926794;29;20043;-77
2021/12/09 14:35:08;;;;;;;17.80;13.02;;;;;;;4.34;95.77;94130.34;4954081;28;20134;-77
2021/12/09 14:37:35;;;;;;;15.07;13.32;;;;;;;4.47;94.38;94123.84;4965863;28;20066;-76
2021/12/09 14:40:09;;;;;;;16.92;14.13;;;;;;;4.49;93.85;94132.22;4926154;29;20023;-75
2021/12/09 14:42:50;;;;;;;18.13;14.32;;;;;;;4.37;95.19;94123.16;4925265;29;20036;-76
2021/12/09 14:45:15;;;;;;;18.10;13.48;;;;;;;4.16;95.92;94122.75;4931192;29;20134;-74
2021/12/09 14:47:53;;;;;;;19.83;14.05;;;;;;;4.36;95.81;94118.22;4932920;29;20111;-76
2021/12/09 14:50:18;;;;;;;18.27;15.15;;;;;;;4.06;97.09;94110.06;4909608;29;20090;-74
2021/12/09 14:52:45;;;;;;;19.25;14.93;;;;;;;4.20;97.10;94095.88;4932476;29;20476;-76
2021/12/09 14:55:26;;;;;;;23.13;14.95;;;;;;;4.22;96.77;94087.09;4926020;29;20515;-76
2021/12/09 14:58:04;;;;;;;17.85;11.82;;;;;;;4.27;97.34;94091.72;4928623;29;20024;-77
2021/12/09 15:00:32;;;;;;;13.52;10.75;;;;;;;4.23;97.03;94104.06;4943402;29;20039;-77
2021/12/09 15:02:58;;;;;;;11.10;9.93;;;;;;;4.23;97.19;94100.69;4941938;29;20729;-75
2021/12/09 15:05:24;;;;;;;11.38;9.23;;;;;;;4.23;97.02;94109.19;4925240;29;20038;-75
2021/12/09 15:08:02;;;;;;;11.40;10.30;;;;;;;3.97;98.73;94130.66;4927007;29;20035;-76
2021/12/09 15:10:31;;;;;;;10.30;9.32;;;;;;;4.11;98.04;94128.31;4944898;29;20110;-74
2021/12/09 15:13:02;;;;;;;10.80;8.85;;;;;;;3.77;100.00;94124.94;4944729;29;20527;-75
2021/12/09 15:15:30;;;;;;;13.63;10.05;;;;;;;3.66;100.00;94125.97;4932262;29;20600;-75
2021/12/09 15:18:04;;;;;;;11.13;9.88;;;;;;;3.79;100.00;94135.03;4919251;29;20163;-77
2021/12/09 15:20:42;;;;;;;8.65;7.85;;;;;;;4.06;99.47;94127.19;4944441;28;20077;-74
2021/12/09 15:23:27;;;;;;;10.43;9.35;;;;;;;3.85;100.00;94130.13;4932078;29;20504;-76
2021/12/09 15:25:53;;;;;;;8.82;8.00;;;;;;;3.95;100.00;94112.88;4931754;29;20394;-75
2021/12/09 15:28:19;;;;;;;9.50;8.38;;;;;;;3.82;100.00;94091.22;4930751;29;20043;-76
2021/12/09 15:31:01;;;;;;;8.07;7.38;;;;;;;4.05;100.00;94102.53;4931496;29;20527;-75
2021/12/09 15:33:43;;;;;;;7.82;7.07;;;;;;;4.10;99.72;94092.63;4916392;29;20098;-75
2021/12/09 15:36:15;;;;;;;8.70;7.90;;;;;;;3.83;100.00;94078.25;4926607;29;20437;-75
2021/12/09 15:38:44;;;;;;;7.43;6.70;;;;;;;3.80;100.00;94055.50;4929979;29;20100;-74
2021/12/09 15:41:22;;;;;;;7.60;6.90;;;;;;;3.45;100.00;94079.44;4930579;29;20158;-75
2021/12/09 15:43:52;;;;;;;8.57;7.55;;;;;;;3.34;100.00;94076.34;4931384;29;20035;-75
2021/12/09 15:46:17;;;;;;;8.65;7.68;;;;;;;3.50;100.00;94084.91;4929915;29;20119;-76
2021/12/09 15:48:44;;;;;;;8.65;7.40;;;;;;;3.40;100.00;94091.09;4941246;29;20039;-75
2021/12/09 15:51:20;;;;;;;7.53;6.82;;;;;;;3.41;100.00;94090.94;4947990;29;20036;-75
2021/12/09 15:53:58;;;;;;;8.43;7.63;;;;;;;3.60;100.00;94108.66;4930844;29;20078;-76
2021/12/09 15:56:42;;;;;;;10.30;7.80;;;;;;;3.71;100.00;94098.19;4931364;29;20453;-75
2021/12/09 15:59:11;;;;;;;8.88;8.02;;;;;;;3.79;100.00;94105.09;4930518;29;20416;-76
2021/12/09 16:01:37;;;;;;;8.25;7.45;;;;;;;3.63;100.00;94081.94;4952816;28;20038;-75
2021/12/09 16:04:05;;;;;;;9.45;7.80;;;;;;;3.82;100.00;94066.38;4948290;29;20043;-76
2021/12/09 16:06:30;;;;;;;9.52;8.43;;;;;;;4.03;100.00;94063.47;4915718;29;20464;-76
2021/12/09 16:08:56;;;;;;;9.13;8.10;;;;;;;3.96;100.00;94052.22;4914052;29;20031;-77
2021/12/09 16:11:22;;;;;;;8.25;7.45;;;;;;;3.83;100.00;94031.34;4926463;29;20027;-77
2021/12/09 16:13:53;;;;;;;9.93;7.43;;;;;;;4.32;100.00;94025.47;4946796;28;20027;-79
2021/12/09 16:16:20;;;;;;;8.23;7.43;;;;;;;4.18;100.00;94008.09;4934017;29;20061;-78
2021/12/09 16:18:48;;;;;;;7.82;6.60;;;;;;;4.19;100.00;94000.28;4911960;29;20126;-79
2021/12/09 16:21:16;;;;;;;8.45;7.60;;;;;;;4.43;100.00;94001.31;4909535;29;20051;-78
2021/12/09 16:23:44;;;;;;;8.68;7.85;;;;;;;4.38;100.00;94026.59;4931203;28;20030;-76
2021/12/09 16:26:10;;;;;;;10.07;8.50;;;;;;;4.43;100.00;94025.16;4928184;29;20058;-76
2021/12/09 16:28:37;;;;;;;10.45;8.23;;;;;;;4.34;100.00;94027.84;4929085;29;20031;-76
2021/12/09 16:31:05;;;;;;;8.25;7.38;;;;;;;4.22;100.00;94038.41;4929968;28;20126;-75
2021/12/09 16:33:31;;;;;;;11.18;9.30;;;;;;;3.93;100.00;94032.03;4930022;29;20043;-75
2021/12/09 16:35:57;;;;;;;10.98;9.15;;;;;;;3.73;100.00;94036.56;4929993;29;20047;-75
2021/12/09 16:38:27;;;;;;;8.63;7.68;;;;;;;4.57;100.00;94039.94;4945345;29;20117;-75
2021/12/09 16:40:53;;;;;;;;;;;;;;;4.29;100.00;94032.66;4900504;29;20038;-75
2021/12/09 16:43:21;;;;;;;7.63;6.90;;;;;;;4.32;100.00;94037.47;4926236;28;20117;-75
2021/12/09 16:45:49;;;;;;;8.68;7.80;;;;;;;4.34;100.00;94041.47;4927752;29;20027;-75
2021/12/09 16:48:14;;;;;;;9.35;8.18;;;;;;;4.52;100.00;94047.31;4946457;28;20027;-75
2021/12/09 16:50:43;;;;;;;9.05;7.68;;;;;;;4.30;100.00;94034.28;4945789;28;20812;-76
2021/12/09 16:53:14;;;;;;;10.05;8.98;;;;;;;4.13;100.00;94049.59;4908039;29;20429;-76
2021/12/09 16:56:00;;;;;;;11.63;10.45;;;;;;;3.96;100.00;94045.34;4927739;29;20039;-76
2021/12/09 16:58:34;;;;;;;10.45;8.52;;;;;;;3.64;100.00;94022.13;4932244;29;20041;-75
2021/12/09 17:01:01;;;;;;;10.88;9.88;;;;;;;3.46;100.00;94032.44;4921396;29;20039;-76
2021/12/09 17:03:27;;;;;;;12.73;9.82;;;;;;;3.92;100.00;94041.47;4954418;28;20031;-77
2021/12/09 17:05:52;;;;;;;13.10;11.70;;;;;;;4.09;100.00;94043.16;4935599;29;20042;-76
2021/12/09 17:08:18;;;;;;;11.15;9.63;;;;;;;3.91;100.00;94044.19;4913815;29;20034;-76
2021/12/09 17:10:43;;;;;;;11.20;10.10;;;;;;;3.65;100.00;94049.34;4947117;29;20058;-76
2021/12/09 17:13:09;;;;;;;14.48;12.23;;;;;;;3.15;100.00;94036.38;4929820;29;20027;-76
2021/12/09 17:15:35;;;;;;;12.30;10.00;;;;;;;3.32;100.00;94037.28;4947917;28;20030;-76
2021/12/09 17:18:01;;;;;;;12.43;10.35;;;;;;;3.38;100.00;94024.72;4946000;29;20042;-76
2021/12/09 17:20:28;;;;;;;17.80;13.73;;;;;;;3.37;100.00;94025.66;4930270;29;20030;-77
2021/12/09 17:22:56;;;;;;;19.55;15.48;;;;;;;3.32;100.00;94025.31;4913534;29;20027;-75
2021/12/09 17:25:23;;;;;;;13.98;12.07;;;;;;;2.94;100.00;94028.22;4946649;29;20027;-76
2021/12/09 17:27:50;;;;;;;17.98;13.93;;;;;;;2.94;100.00;94030.78;4927234;29;20512;-76
2021/12/09 17:30:17;;;;;;;15.98;14.32;;;;;;;2.58;100.00;94030.78;4946237;28;20117;-76
2021/12/09 17:32:45;;;;;;;18.92;14.57;;;;;;;2.57;100.00;94031.75;4929307;28;20058;-76
2021/12/09 17:35:13;;;;;;;16.45;13.68;;;;;;;2.30;100.00;94023.34;4928460;29;20055;-76
2021/12/09 17:37:39;;;;;;;17.67;13.40;;;;;;;2.24;100.00;94029.81;4946455;29;20587;-76
2021/12/09 17:40:06;;;;;;;21.52;16.08;;;;;;;2.25;100.00;94010.97;4941823;29;20046;-76
2021/12/09 17:42:31;;;;;;;19.33;13.95;;;;;;;2.20;100.00;94025.94;4923075;28;20464;-76
2021/12/09 17:44:56;;;;;;;23.90;17.10;;;;;;;2.12;100.00;94026.66;4938449;28;20083;-75
2021/12/09 17:47:25;;;;;;;29.08;20.52;;;;;;;2.09;100.00;94044.00;4926910;29;20032;-75
2021/12/09 17:49:52;;;;;;;18.55;14.65;;;;;;;2.03;100.00;94044.56;4929622;29;20054;-75
2021/12/09 17:52:26;;;;;;;14.63;12.55;;;;;;;2.26;100.00;94047.53;4929173;29;20027;-75
2021/12/09 17:54:52;;;;;;;18.88;14.10;;;;;;;2.29;100.00;94037.84;4930479;29;20580;-76
2021/12/09 17:57:18;;;;;;;16.70;13.07;;;;;;;2.34;100.00;94027.22;4909157;29;20134;-76
2021/12/09 17:59:43;;;;;;;17.30;13.05;;;;;;;2.35;100.00;94023.69;4926716;28;20038;-76
2021/12/09 18:02:09;;;;;;;15.00;12.23;;;;;;;2.55;100.00;94023.44;4910413;29;20034;-77
2021/12/09 18:04:35;;;;;;;16.05;13.50;;;;;;;2.41;100.00;94015.47;4926996;29;20037;-76
2021/12/09 18:07:01;;;;;;;18.25;13.88;;;;;;;2.20;100.00;94022.59;4926010;29;20142;-76
2021/12/09 18:09:27;;;;;;;18.45;16.02;;;;;;;1.99;100.00;94043.28;4913578;29;20103;-76
2021/12/09 18:11:54;;;;;;;19.63;13.68;;;;;;;2.00;100.00;94034.66;4929269;29;20046;-77
2021/12/09 18:14:21;;;;;;;21.85;14.77;;;;;;;1.93;100.00;94042.06;4913175;29;20110;-76
2021/12/09 18:16:54;;;;;;;17.67;13.65;;;;;;;2.15;100.00;94029.88;4929534;29;20110;-76
2021/12/09 18:19:19;;;;;;;16.98;13.77;;;;;;;2.35;100.00;94021.94;4913472;29;20035;-76
2021/12/09 18:21:44;;;;;;;15.43;12.90;;;;;;;2.41;100.00;94010.38;4927157;29;20032;-76
2021/12/09 18:24:10;;;;;;;16.88;13.18;;;;;;;2.35;100.00;94016.84;4945771;29;20031;-76
2021/12/09 18:26:35;;;;;;;16.25;12.02;;;;;;;2.66;100.00;94030.06;4961086;28;20033;-77
2021/12/09 18:29:02;;;;;;;19.65;12.57;;;;;;;2.57;100.00;94028.38;4931650;28;20419;-77
2021/12/09 18:31:28;;;;;;;15.32;13.65;;;;;;;2.67;100.00;94021.44;4946890;28;20027;-77
2021/12/09 18:33:54;;;;;;;14.40;11.60;;;;;;;2.73;100.00;94022.63;4916510;29;20472;-77
2021/12/09 18:36:22;;;;;;;13.70;11.35;;;;;;;2.61;100.00;94012.63;4911624;29;20050;-76
2021/12/09 18:38:52;;;;;;;15.38;12.02;;;;;;;2.61;100.00;94017.72;4927906;29;20114;-76
2021/12/09 18:41:18;;;;;;;15.73;12.30;;;;;;;2.58;100.00;94027.44;4912854;29;20042;-77
2021/12/09 18:43:44;;;;;;;18.17;14.48;;;;;;;2.63;100.00;94027.81;4917057;29;20039;-76
2021/12/09 18:46:10;;;;;;;30.73;21.67;;;;;;;2.56;100.00;94026.78;4910292;29;20425;-77
2021/12/09 18:48:36;;;;;;;20.23;15.05;;;;;;;2.49;100.00;94023.19;4925946;29;20031;-76
2021/12/09 18:51:06;;;;;;;36.63;24.13;;;;;;;2.55;100.00;94018.31;4918193;29;20050;-76
2021/12/09 18:53:33;;;;;;;40.40;24.20;;;;;;;2.41;100.00;93992.47;4928657;29;20489;-77
2021/12/09 18:55:59;;;;;;;25.20;18.45;;;;;;;2.45;100.00;94015.03;4948641;28;20035;-77
2021/12/09 18:58:24;;;;;;;31.38;19.45;;;;;;;2.12;100.00;94019.00;4915791;29;20393;-77
2021/12/09 19:00:52;;;;;;;31.13;21.75;;;;;;;1.99;100.00;94003.19;4922872;28;20072;-77
2021/12/09 19:03:18;;;;;;;29.05;20.20;;;;;;;1.94;100.00;94022.44;4943668;29;20059;-77
2021/12/09 19:05:44;;;;;;;24.40;18.90;;;;;;;2.71;100.00;94033.00;4926016;28;20034;-77
2021/12/09 19:08:10;;;;;;;21.08;16.35;;;;;;;2.72;100.00;94021.81;4935320;28;20035;-77
2021/12/09 19:10:37;;;;;;;16.42;13.38;;;;;;;3.40;100.00;94045.84;4948035;28;20019;-77
2021/12/09 19:13:04;;;;;;;16.02;13.00;;;;;;;4.31;100.00;94021.28;4922283;29;20052;-77
2021/12/09 19:15:29;;;;;;;15.80;13.38;;;;;;;3.99;100.00;94016.06;4893773;29;20025;-78
2021/12/09 19:18:02;;;;;;;13.80;12.40;;;;;;;5.17;100.00;93998.63;4878883;29;20047;-76
2021/12/09 19:20:30;;;;;;;13.10;11.02;;;;;;;5.05;100.00;94005.84;4894610;29;20418;-78
2021/12/09 19:22:56;;;;;;;13.70;11.68;;;;;;;4.45;100.00;94007.88;4900698;29;20118;-78